sensor_id;sensor_type;location;lat;lon;timestamp;pressure;altitude;pressure_sealevel;temperature;humidity
72570;BME280;60594;50.204;8.844;2024-03-23T00:56:12;99131.31;;;9.25;100.00
72570;BME280;60594;50.204;8.844;2024-03-23T00:58:57;99132.88;;;9.28;100.00
72570;BME280;60594;50.204;8.844;2024-03-23T01:01:42;99126.16;;;9.33;100.00
72570;BME280;60594;50.204;8.844;2024-03-23T01:04:27;99105.56;;;9.35;100.00
72570;BME280;60594;50.204;8.844;2024-03-23T01:07:12;99096.31;;;9.39;100.00
72570;BME280;60594;50.204;8.844;2024-03-23T01:09:58;99085.41;;;9.42;100.00
72570;BME280;60594;50.204;8.844;2024-03-23T01:12:42;99084.28;;;9.45;100.00
72570;BME280;60594;50.204;8.844;2024-03-23T01:15:27;99078.53;;;9.49;100.00
72570;BME280;60594;50.204;8.844;2024-03-23T01:18:12;99065.78;;;9.53;100.00
72570;BME280;60594;50.204;8.844;2024-03-23T01:20:57;99068.28;;;9.54;100.00
72570;BME280;60594;50.204;8.844;2024-03-23T01:23:42;99075.84;;;9.59;100.00
72570;BME280;60594;50.204;8.844;2024-03-23T01:26:27;99078.13;;;9.54;100.00
72570;BME280;60594;50.204;8.844;2024-03-23T01:29:12;99071.72;;;9.09;100.00
72570;BME280;60594;50.204;8.844;2024-03-23T01:31:58;99062.22;;;9.16;100.00
72570;BME280;60594;50.204;8.844;2024-03-23T01:34:42;99071.31;;;9.13;100.00
72570;BME280;60594;50.204;8.844;2024-03-23T01:37:28;99066.28;;;9.10;100.00
72570;BME280;60594;50.204;8.844;2024-03-23T01:40:13;99053.13;;;9.09;100.00
72570;BME280;60594;50.204;8.844;2024-03-23T01:43:07;99038.03;;;9.09;100.00
72570;BME280;60594;50.204;8.844;2024-03-23T01:45:53;99044.88;;;9.12;100.00
72570;BME280;60594;50.204;8.844;2024-03-23T01:48:38;99041.09;;;9.14;100.00
72570;BME280;60594;50.204;8.844;2024-03-23T01:51:23;99032.16;;;9.15;100.00
72570;BME280;60594;50.204;8.844;2024-03-23T01:54:09;99018.88;;;9.15;100.00
72570;BME280;60594;50.204;8.844;2024-03-23T01:56:54;99013.94;;;9.20;100.00
72570;BME280;60594;50.204;8.844;2024-03-23T01:59:39;99004.03;;;9.22;100.00
72570;BME280;60594;50.204;8.844;2024-03-23T02:02:25;98993.94;;;9.26;100.00
72570;BME280;60594;50.204;8.844;2024-03-23T02:05:14;98999.38;;;9.24;100.00
72570;BME280;60594;50.204;8.844;2024-03-23T02:07:59;98995.47;;;9.19;100.00
72570;BME280;60594;50.204;8.844;2024-03-23T02:10:44;98991.97;;;9.18;100.00
72570;BME280;60594;50.204;8.844;2024-03-23T02:13:28;98994.94;;;9.15;100.00
72570;BME280;60594;50.204;8.844;2024-03-23T02:16:14;98988.78;;;9.15;100.00
72570;BME280;60594;50.204;8.844;2024-03-23T02:18:58;98987.25;;;9.12;100.00
72570;BME280;60594;50.204;8.844;2024-03-23T02:21:44;98986.84;;;9.17;100.00
72570;BME280;60594;50.204;8.844;2024-03-23T02:24:29;98973.41;;;9.09;100.00
72570;BME280;60594;50.204;8.844;2024-03-23T02:27:14;98978.00;;;9.16;100.00
72570;BME280;60594;50.204;8.844;2024-03-23T02:29:59;98975.34;;;9.16;100.00
72570;BME280;60594;50.204;8.844;2024-03-23T02:32:44;98978.84;;;9.17;100.00
72570;BME280;60594;50.204;8.844;2024-03-23T02:35:29;98974.50;;;9.16;100.00
72570;BME280;60594;50.204;8.844;2024-03-23T02:38:14;98975.63;;;9.13;100.00
72570;BME280;60594;50.204;8.844;2024-03-23T02:41:03;98968.25;;;8.98;100.00
72570;BME280;60594;50.204;8.844;2024-03-23T02:43:52;98966.47;;;8.89;100.00
72570;BME280;60594;50.204;8.844;2024-03-23T02:46:36;98960.31;;;8.79;100.00
72570;BME280;60594;50.204;8.844;2024-03-23T02:49:22;98958.53;;;8.70;100.00
72570;BME280;60594;50.204;8.844;2024-03-23T02:52:06;98957.28;;;8.64;100.00
72570;BME280;60594;50.204;8.844;2024-03-23T02:54:52;98947.91;;;8.60;100.00
72570;BME280;60594;50.204;8.844;2024-03-23T02:57:36;98930.59;;;8.56;100.00
72570;BME280;60594;50.204;8.844;2024-03-23T03:00:21;98931.41;;;8.57;100.00
72570;BME280;60594;50.204;8.844;2024-03-23T03:03:06;98925.97;;;8.39;100.00
72570;BME280;60594;50.204;8.844;2024-03-23T03:05:56;98926.69;;;8.51;100.00
72570;BME280;60594;50.204;8.844;2024-03-23T03:08:41;98927.09;;;8.56;100.00
72570;BME280;60594;50.204;8.844;2024-03-23T03:11:26;98924.84;;;8.61;100.00
72570;BME280;60594;50.204;8.844;2024-03-23T03:14:11;98921.50;;;8.59;100.00
72570;BME280;60594;50.204;8.844;2024-03-23T03:16:56;98922.63;;;8.56;100.00
72570;BME280;60594;50.204;8.844;2024-03-23T03:19:40;98922.19;;;8.61;100.00
72570;BME280;60594;50.204;8.844;2024-03-23T03:22:26;98914.63;;;8.66;100.00
72570;BME280;60594;50.204;8.844;2024-03-23T03:25:10;98904.41;;;8.71;100.00
72570;BME280;60594;50.204;8.844;2024-03-23T03:27:56;98916.72;;;8.72;100.00
72570;BME280;60594;50.204;8.844;2024-03-23T03:30:40;98908.19;;;8.68;100.00
72570;BME280;60594;50.204;8.844;2024-03-23T03:33:28;98908.31;;;8.76;100.00
72570;BME280;60594;50.204;8.844;2024-03-23T03:36:13;98902.59;;;8.81;100.00
72570;BME280;60594;50.204;8.844;2024-03-23T03:38:58;98878.97;;;8.78;100.00
72570;BME280;60594;50.204;8.844;2024-03-23T03:41:43;98884.00;;;8.81;100.00
72570;BME280;60594;50.204;8.844;2024-03-23T03:44:28;98886.91;;;8.87;100.00
72570;BME280;60594;50.204;8.844;2024-03-23T03:47:12;98898.53;;;8.86;100.00
72570;BME280;60594;50.204;8.844;2024-03-23T03:49:58;98882.31;;;8.70;100.00
72570;BME280;60594;50.204;8.844;2024-03-23T03:52:42;98880.66;;;8.69;100.00
72570;BME280;60594;50.204;8.844;2024-03-23T03:55:27;98886.53;;;8.73;100.00
72570;BME280;60594;50.204;8.844;2024-03-23T03:58:12;98864.81;;;8.77;100.00
72570;BME280;60594;50.204;8.844;2024-03-23T04:00:57;98866.22;;;8.81;100.00
72570;BME280;60594;50.204;8.844;2024-03-23T04:03:43;98867.63;;;8.76;100.00
72570;BME280;60594;50.204;8.844;2024-03-23T04:06:28;98872.66;;;8.79;100.00
72570;BME280;60594;50.204;8.844;2024-03-23T04:09:13;98889.31;;;8.81;100.00
72570;BME280;60594;50.204;8.844;2024-03-23T04:11:58;98883.31;;;8.69;100.00
72570;BME280;60594;50.204;8.844;2024-03-23T04:14:42;98889.88;;;8.65;100.00
72570;BME280;60594;50.204;8.844;2024-03-23T04:17:28;98889.03;;;8.65;100.00
72570;BME280;60594;50.204;8.844;2024-03-23T04:20:16;98886.97;;;8.68;100.00
72570;BME280;60594;50.204;8.844;2024-03-23T04:23:02;98889.31;;;8.81;100.00
72570;BME280;60594;50.204;8.844;2024-03-23T04:25:47;98894.88;;;8.87;100.00
72570;BME280;60594;50.204;8.844;2024-03-23T04:28:32;98902.56;;;8.90;100.00
72570;BME280;60594;50.204;8.844;2024-03-23T04:31:16;98923.38;;;8.85;100.00
72570;BME280;60594;50.204;8.844;2024-03-23T04:34:02;98928.44;;;8.79;100.00
72570;BME280;60594;50.204;8.844;2024-03-23T04:36:46;98936.44;;;8.69;100.00
72570;BME280;60594;50.204;8.844;2024-03-23T04:39:31;98933.22;;;8.66;100.00
72570;BME280;60594;50.204;8.844;2024-03-23T04:42:16;98938.69;;;8.55;100.00
72570;BME280;60594;50.204;8.844;2024-03-23T04:45:02;98937.84;;;8.45;100.00
72570;BME280;60594;50.204;8.844;2024-03-23T04:47:46;98936.59;;;8.39;100.00
72570;BME280;60594;50.204;8.844;2024-03-23T04:50:32;98947.34;;;8.28;100.00
72570;BME280;60594;50.204;8.844;2024-03-23T04:53:17;98934.63;;;8.22;100.00
72570;BME280;60594;50.204;8.844;2024-03-23T04:56:02;98936.31;;;8.23;100.00
72570;BME280;60594;50.204;8.844;2024-03-23T04:58:48;98934.91;;;8.19;100.00
72570;BME280;60594;50.204;8.844;2024-03-23T05:01:33;98953.88;;;8.15;100.00
72570;BME280;60594;50.204;8.844;2024-03-23T05:04:21;98962.25;;;8.10;100.00
72570;BME280;60594;50.204;8.844;2024-03-23T05:07:06;98984.28;;;7.92;100.00
72570;BME280;60594;50.204;8.844;2024-03-23T05:09:51;98980.56;;;7.64;100.00
72570;BME280;60594;50.204;8.844;2024-03-23T05:12:37;98986.41;;;7.58;100.00
72570;BME280;60594;50.204;8.844;2024-03-23T05:15:22;98991.41;;;7.52;100.00
72570;BME280;60594;50.204;8.844;2024-03-23T05:18:07;98998.09;;;7.46;100.00
72570;BME280;60594;50.204;8.844;2024-03-23T05:20:56;98993.44;;;7.39;100.00
72570;BME280;60594;50.204;8.844;2024-03-23T05:23:42;99011.16;;;7.38;100.00
72570;BME280;60594;50.204;8.844;2024-03-23T05:26:27;98998.50;;;7.21;100.00
72570;BME280;60594;50.204;8.844;2024-03-23T05:29:13;99010.78;;;7.22;100.00
72570;BME280;60594;50.204;8.844;2024-03-23T05:31:58;99024.28;;;7.19;100.00
72570;BME280;60594;50.204;8.844;2024-03-23T05:34:43;99035.41;;;7.13;100.00
72570;BME280;60594;50.204;8.844;2024-03-23T05:37:28;99047.00;;;7.12;100.00
72570;BME280;60594;50.204;8.844;2024-03-23T05:40:15;99049.28;;;7.05;100.00
72570;BME280;60594;50.204;8.844;2024-03-23T05:43:00;99042.00;;;6.98;100.00
72570;BME280;60594;50.204;8.844;2024-03-23T05:45:45;99064.38;;;7.05;100.00
72570;BME280;60594;50.204;8.844;2024-03-23T05:48:30;99062.53;;;7.05;100.00
72570;BME280;60594;50.204;8.844;2024-03-23T05:51:15;99068.69;;;7.06;100.00
72570;BME280;60594;50.204;8.844;2024-03-23T05:54:01;99090.72;;;7.07;100.00
72570;BME280;60594;50.204;8.844;2024-03-23T05:56:46;99101.44;;;7.05;100.00
72570;BME280;60594;50.204;8.844;2024-03-23T05:59:31;99100.59;;;7.04;100.00
72570;BME280;60594;50.204;8.844;2024-03-23T06:02:16;99113.00;;;7.04;100.00
72570;BME280;60594;50.204;8.844;2024-03-23T06:05:01;99117.22;;;7.07;100.00
72570;BME280;60594;50.204;8.844;2024-03-23T06:07:47;99120.63;;;6.97;100.00
72570;BME280;60594;50.204;8.844;2024-03-23T06:10:31;99120.94;;;7.04;100.00
72570;BME280;60594;50.204;8.844;2024-03-23T06:13:16;99134.41;;;7.12;100.00
72570;BME280;60594;50.204;8.844;2024-03-23T06:16:02;99143.44;;;7.09;100.00
72570;BME280;60594;50.204;8.844;2024-03-23T06:18:48;99149.81;;;7.07;100.00
72570;BME280;60594;50.204;8.844;2024-03-23T06:21:33;99157.44;;;7.00;100.00
72570;BME280;60594;50.204;8.844;2024-03-23T06:24:18;99160.59;;;6.94;100.00
72570;BME280;60594;50.204;8.844;2024-03-23T06:27:03;99148.41;;;7.03;100.00
72570;BME280;60594;50.204;8.844;2024-03-23T06:29:49;99131.56;;;6.93;100.00
72570;BME280;60594;50.204;8.844;2024-03-23T06:32:34;99139.94;;;6.88;100.00
72570;BME280;60594;50.204;8.844;2024-03-23T06:35:19;99159.41;;;6.87;100.00
72570;BME280;60594;50.204;8.844;2024-03-23T06:38:03;99174.44;;;6.98;100.00
72570;BME280;60594;50.204;8.844;2024-03-23T06:40:48;99190.78;;;7.03;100.00
72570;BME280;60594;50.204;8.844;2024-03-23T06:43:35;99202.81;;;7.07;100.00
72570;BME280;60594;50.204;8.844;2024-03-23T06:46:20;99196.31;;;7.00;100.00
72570;BME280;60594;50.204;8.844;2024-03-23T06:49:05;99213.09;;;6.89;100.00
72570;BME280;60594;50.204;8.844;2024-03-23T06:51:51;99234.50;;;6.97;100.00
72570;BME280;60594;50.204;8.844;2024-03-23T06:54:36;99227.44;;;6.87;100.00
72570;BME280;60594;50.204;8.844;2024-03-23T06:57:21;99240.53;;;6.99;100.00
72570;BME280;60594;50.204;8.844;2024-03-23T07:00:07;99258.47;;;6.96;100.00
72570;BME280;60594;50.204;8.844;2024-03-23T07:02:54;99256.56;;;6.87;100.00
72570;BME280;60594;50.204;8.844;2024-03-23T07:05:40;99259.94;;;6.78;100.00
72570;BME280;60594;50.204;8.844;2024-03-23T07:08:25;99265.47;;;6.75;100.00
72570;BME280;60594;50.204;8.844;2024-03-23T07:11:10;99276.31;;;6.83;100.00
72570;BME280;60594;50.204;8.844;2024-03-23T07:13:55;99285.31;;;6.91;100.00
72570;BME280;60594;50.204;8.844;2024-03-23T07:16:40;99286.50;;;6.98;100.00
72570;BME280;60594;50.204;8.844;2024-03-23T07:19:25;99286.88;;;6.94;100.00
72570;BME280;60594;50.204;8.844;2024-03-23T07:22:10;99303.59;;;6.94;100.00
72570;BME280;60594;50.204;8.844;2024-03-23T07:24:55;99303.84;;;6.91;99.05
72570;BME280;60594;50.204;8.844;2024-03-23T07:27:39;99307.81;;;6.86;100.00
72570;BME280;60594;50.204;8.844;2024-03-23T07:30:24;99309.31;;;6.79;100.00
72570;BME280;60594;50.204;8.844;2024-03-23T07:33:09;99316.50;;;6.88;100.00
72570;BME280;60594;50.204;8.844;2024-03-23T07:35:54;99323.25;;;6.92;100.00
72570;BME280;60594;50.204;8.844;2024-03-23T07:38:42;99320.81;;;6.89;98.51
72570;BME280;60594;50.204;8.844;2024-03-23T07:41:29;99321.31;;;6.94;98.19
72570;BME280;60594;50.204;8.844;2024-03-23T07:44:15;99338.78;;;6.96;100.00
72570;BME280;60594;50.204;8.844;2024-03-23T07:47:00;99347.06;;;7.03;99.49
72570;BME280;60594;50.204;8.844;2024-03-23T07:49:45;99340.66;;;7.17;100.00
72570;BME280;60594;50.204;8.844;2024-03-23T07:52:30;99349.00;;;7.23;99.04
72570;BME280;60594;50.204;8.844;2024-03-23T07:55:15;99352.09;;;7.28;98.92
72570;BME280;60594;50.204;8.844;2024-03-23T07:58:00;99348.84;;;7.25;97.78
72570;BME280;60594;50.204;8.844;2024-03-23T08:00:45;99358.72;;;7.23;94.27
72570;BME280;60594;50.204;8.844;2024-03-23T08:03:30;99359.31;;;7.26;94.91
72570;BME280;60594;50.204;8.844;2024-03-23T08:06:18;99360.91;;;7.29;99.02
72570;BME280;60594;50.204;8.844;2024-03-23T08:09:09;99373.91;;;7.21;97.58
72570;BME280;60594;50.204;8.844;2024-03-23T08:11:54;99369.94;;;7.15;97.80
72570;BME280;60594;50.204;8.844;2024-03-23T08:14:39;99377.16;;;7.13;94.59
72570;BME280;60594;50.204;8.844;2024-03-23T08:17:24;99373.44;;;7.16;94.10
72570;BME280;60594;50.204;8.844;2024-03-23T08:20:09;99380.53;;;7.15;93.51
72570;BME280;60594;50.204;8.844;2024-03-23T08:22:55;99387.16;;;7.09;95.06
72570;BME280;60594;50.204;8.844;2024-03-23T08:25:40;99392.84;;;7.05;95.80
72570;BME280;60594;50.204;8.844;2024-03-23T08:28:25;99402.09;;;6.99;95.19
72570;BME280;60594;50.204;8.844;2024-03-23T08:31:12;99404.63;;;7.01;94.84
72570;BME280;60594;50.204;8.844;2024-03-23T08:33:57;99411.38;;;7.05;95.25
72570;BME280;60594;50.204;8.844;2024-03-23T08:36:42;99407.75;;;7.17;96.23
72570;BME280;60594;50.204;8.844;2024-03-23T08:39:27;99419.03;;;7.41;93.79
72570;BME280;60594;50.204;8.844;2024-03-23T08:42:12;99419.28;;;7.60;90.77
72570;BME280;60594;50.204;8.844;2024-03-23T08:44:57;99419.41;;;8.01;89.95
72570;BME280;60594;50.204;8.844;2024-03-23T08:47:42;99423.56;;;8.15;85.52
72570;BME280;60594;50.204;8.844;2024-03-23T08:50:27;99431.97;;;8.20;86.79
72570;BME280;60594;50.204;8.844;2024-03-23T08:53:12;99434.53;;;8.21;85.21
72570;BME280;60594;50.204;8.844;2024-03-23T08:55:58;99425.59;;;8.22;87.48
72570;BME280;60594;50.204;8.844;2024-03-23T08:58:43;99434.41;;;8.54;86.19
72570;BME280;60594;50.204;8.844;2024-03-23T09:01:28;99435.38;;;8.74;86.99
72570;BME280;60594;50.204;8.844;2024-03-23T09:04:13;99432.59;;;8.55;85.68
72570;BME280;60594;50.204;8.844;2024-03-23T09:06:58;99445.94;;;8.44;83.03
72570;BME280;60594;50.204;8.844;2024-03-23T09:09:44;99441.66;;;8.73;82.32
72570;BME280;60594;50.204;8.844;2024-03-23T09:12:29;99447.59;;;8.65;81.18
72570;BME280;60594;50.204;8.844;2024-03-23T09:15:14;99451.22;;;8.44;83.61
72570;BME280;60594;50.204;8.844;2024-03-23T09:18:00;99450.25;;;8.45;80.89
72570;BME280;60594;50.204;8.844;2024-03-23T09:20:45;99450.63;;;8.40;79.01
72570;BME280;60594;50.204;8.844;2024-03-23T09:23:30;99451.22;;;8.44;79.22
72570;BME280;60594;50.204;8.844;2024-03-23T09:26:15;99459.41;;;8.52;81.47
72570;BME280;60594;50.204;8.844;2024-03-23T09:28:59;99456.28;;;8.47;84.04
72570;BME280;60594;50.204;8.844;2024-03-23T09:31:44;99457.25;;;8.66;83.92
72570;BME280;60594;50.204;8.844;2024-03-23T09:34:29;99459.41;;;9.23;78.21
72570;BME280;60594;50.204;8.844;2024-03-23T09:37:15;99437.88;;;9.56;77.62
72570;BME280;60594;50.204;8.844;2024-03-23T09:39:59;99450.81;;;9.79;74.32
72570;BME280;60594;50.204;8.844;2024-03-23T09:42:52;99446.25;;;9.51;75.75
72570;BME280;60594;50.204;8.844;2024-03-23T09:45:40;99447.00;;;9.63;73.68
72570;BME280;60594;50.204;8.844;2024-03-23T09:48:25;99451.13;;;9.46;72.54
72570;BME280;60594;50.204;8.844;2024-03-23T09:51:10;99456.41;;;9.76;71.52
72570;BME280;60594;50.204;8.844;2024-03-23T09:53:56;99465.25;;;9.37;70.46
72570;BME280;60594;50.204;8.844;2024-03-23T09:56:42;99456.16;;;9.40;71.54
72570;BME280;60594;50.204;8.844;2024-03-23T09:59:26;99462.28;;;9.40;70.85
72570;BME280;60594;50.204;8.844;2024-03-23T10:02:11;99460.66;;;9.49;69.35
72570;BME280;60594;50.204;8.844;2024-03-23T10:05:02;99464.69;;;9.83;67.52
72570;BME280;60594;50.204;8.844;2024-03-23T10:07:47;99454.56;;;10.26;67.78
72570;BME280;60594;50.204;8.844;2024-03-23T10:10:32;99468.41;;;10.10;68.45
72570;BME280;60594;50.204;8.844;2024-03-23T10:13:27;99456.97;;;10.38;65.07
72570;BME280;60594;50.204;8.844;2024-03-23T10:16:12;99459.06;;;10.64;62.71
72570;BME280;60594;50.204;8.844;2024-03-23T10:19:05;99459.28;;;10.89;63.82
72570;BME280;60594;50.204;8.844;2024-03-23T10:21:55;99445.09;;;11.08;61.17
72570;BME280;60594;50.204;8.844;2024-03-23T11:10:00;99467.03;;;5.53;100.00
72570;BME280;60594;50.204;8.844;2024-03-23T11:12:45;99478.03;;;5.59;100.00
72570;BME280;60594;50.204;8.844;2024-03-23T11:15:30;99468.19;;;5.61;100.00
72570;BME280;60594;50.204;8.844;2024-03-23T11:18:20;99484.28;;;5.46;100.00
72570;BME280;60594;50.204;8.844;2024-03-23T11:21:07;99463.00;;;5.60;100.00
72570;BME280;60594;50.204;8.844;2024-03-23T11:23:52;99484.13;;;5.72;100.00
72570;BME280;60594;50.204;8.844;2024-03-23T11:26:38;99475.91;;;5.64;100.00
72570;BME280;60594;50.204;8.844;2024-03-23T11:29:24;99483.63;;;5.67;100.00
72570;BME280;60594;50.204;8.844;2024-03-23T11:32:09;99473.16;;;5.66;100.00
72570;BME280;60594;50.204;8.844;2024-03-23T11:34:54;99460.22;;;5.74;100.00
72570;BME280;60594;50.204;8.844;2024-03-23T11:37:39;99460.09;;;5.88;100.00
72570;BME280;60594;50.204;8.844;2024-03-23T11:40:26;99456.13;;;6.06;100.00
72570;BME280;60594;50.204;8.844;2024-03-23T11:43:13;99451.50;;;5.97;100.00
72570;BME280;60594;50.204;8.844;2024-03-23T11:45:58;99446.31;;;5.95;100.00
72570;BME280;60594;50.204;8.844;2024-03-23T11:48:50;99443.06;;;6.15;100.00
72570;BME280;60594;50.204;8.844;2024-03-23T11:51:36;99435.66;;;6.31;100.00
72570;BME280;60594;50.204;8.844;2024-03-23T11:54:22;99437.50;;;6.42;98.36
72570;BME280;60594;50.204;8.844;2024-03-23T11:57:08;99435.84;;;6.52;93.86
72570;BME280;60594;50.204;8.844;2024-03-23T11:59:53;99449.72;;;6.66;94.62
72570;BME280;60594;50.204;8.844;2024-03-23T12:02:39;99434.44;;;6.70;95.50
72570;BME280;60594;50.204;8.844;2024-03-23T12:05:26;99423.72;;;6.71;92.94
72570;BME280;60594;50.204;8.844;2024-03-23T12:11:11;99403.16;;;7.30;91.67
72570;BME280;60594;50.204;8.844;2024-03-23T12:13:59;99387.66;;;7.79;91.40
72570;BME280;60594;50.204;8.844;2024-03-23T12:16:44;99384.13;;;8.10;87.01
72570;BME280;60594;50.204;8.844;2024-03-23T12:19:29;99378.31;;;8.27;83.85
72570;BME280;60594;50.204;8.844;2024-03-23T12:22:14;99367.56;;;8.49;80.20
72570;BME280;60594;50.204;8.844;2024-03-23T12:25:00;99369.34;;;8.69;83.01
72570;BME280;60594;50.204;8.844;2024-03-23T12:27:44;99368.97;;;9.04;82.12
72570;BME280;60594;50.204;8.844;2024-03-23T12:30:29;99372.50;;;9.14;77.74
72570;BME280;60594;50.204;8.844;2024-03-23T12:33:15;99360.19;;;9.13;75.48
72570;BME280;60594;50.204;8.844;2024-03-23T12:36:00;99362.63;;;9.35;76.11
72570;BME280;60594;50.204;8.844;2024-03-23T12:38:45;99359.06;;;9.64;76.37
72570;BME280;60594;50.204;8.844;2024-03-23T12:41:30;99352.47;;;9.59;73.98
72570;BME280;60594;50.204;8.844;2024-03-23T12:44:15;99354.41;;;9.57;73.37
72570;BME280;60594;50.204;8.844;2024-03-23T12:47:00;99340.28;;;9.47;72.71
72570;BME280;60594;50.204;8.844;2024-03-23T12:49:45;99352.22;;;9.71;72.40
72570;BME280;60594;50.204;8.844;2024-03-23T12:52:32;99346.63;;;9.84;67.78
72570;BME280;60594;50.204;8.844;2024-03-23T12:55:17;99338.06;;;9.61;67.15
72570;BME280;60594;50.204;8.844;2024-03-23T12:58:03;99330.47;;;9.47;69.32
72570;BME280;60594;50.204;8.844;2024-03-23T13:00:48;99344.50;;;9.59;68.97
72570;BME280;60594;50.204;8.844;2024-03-23T13:03:33;99348.56;;;9.63;70.31
72570;BME280;60594;50.204;8.844;2024-03-23T13:06:18;99340.59;;;9.63;68.58
72570;BME280;60594;50.204;8.844;2024-03-23T13:09:04;99340.41;;;9.45;70.26
72570;BME280;60594;50.204;8.844;2024-03-23T13:11:49;99336.25;;;9.52;68.82
72570;BME280;60594;50.204;8.844;2024-03-23T13:14:35;99357.50;;;9.52;68.12
72570;BME280;60594;50.204;8.844;2024-03-23T13:17:20;99402.59;;;9.54;71.87
72570;BME280;60594;50.204;8.844;2024-03-23T13:20:05;99409.38;;;9.28;75.01
72570;BME280;60594;50.204;8.844;2024-03-23T13:22:50;99409.06;;;8.71;79.13
72570;BME280;60594;50.204;8.844;2024-03-23T13:25:36;99434.94;;;8.06;80.27
72570;BME280;60594;50.204;8.844;2024-03-23T13:28:22;99453.50;;;7.52;86.16
72570;BME280;60594;50.204;8.844;2024-03-23T13:31:07;99462.03;;;6.89;94.25
72570;BME280;60594;50.204;8.844;2024-03-23T13:33:52;99471.53;;;6.12;96.63
72570;BME280;60594;50.204;8.844;2024-03-23T13:36:38;99466.66;;;5.34;100.00
72570;BME280;60594;50.204;8.844;2024-03-23T13:39:22;99488.25;;;4.90;100.00
72570;BME280;60594;50.204;8.844;2024-03-23T13:42:07;99492.31;;;4.57;100.00
72570;BME280;60594;50.204;8.844;2024-03-23T13:44:53;99494.94;;;4.32;100.00
72570;BME280;60594;50.204;8.844;2024-03-23T13:47:38;99478.81;;;4.10;100.00
72570;BME280;60594;50.204;8.844;2024-03-23T13:50:23;99481.13;;;4.14;100.00
72570;BME280;60594;50.204;8.844;2024-03-23T13:53:09;99478.00;;;4.22;100.00
72570;BME280;60594;50.204;8.844;2024-03-23T13:55:54;99466.75;;;4.32;100.00
72570;BME280;60594;50.204;8.844;2024-03-23T13:58:39;99466.03;;;4.55;100.00
72570;BME280;60594;50.204;8.844;2024-03-23T14:01:24;99457.63;;;4.75;100.00
72570;BME280;60594;50.204;8.844;2024-03-23T14:04:10;99443.59;;;4.87;100.00
72570;BME280;60594;50.204;8.844;2024-03-23T14:06:55;99448.75;;;5.01;100.00
72570;BME280;60594;50.204;8.844;2024-03-23T14:09:40;99447.69;;;5.16;100.00
72570;BME280;60594;50.204;8.844;2024-03-23T14:12:25;99438.69;;;5.31;100.00
72570;BME280;60594;50.204;8.844;2024-03-23T14:15:10;99433.59;;;5.41;100.00
72570;BME280;60594;50.204;8.844;2024-03-23T14:17:56;99434.84;;;5.48;100.00
72570;BME280;60594;50.204;8.844;2024-03-23T14:20:41;99437.94;;;5.65;100.00
72570;BME280;60594;50.204;8.844;2024-03-23T14:23:30;99434.84;;;5.84;100.00
72570;BME280;60594;50.204;8.844;2024-03-23T14:26:19;99429.25;;;5.99;100.00
72570;BME280;60594;50.204;8.844;2024-03-23T14:29:03;99424.34;;;5.95;100.00
72570;BME280;60594;50.204;8.844;2024-03-23T14:31:49;99434.50;;;6.12;100.00
72570;BME280;60594;50.204;8.844;2024-03-23T14:34:33;99424.50;;;6.39;100.00
72570;BME280;60594;50.204;8.844;2024-03-23T14:37:19;99423.38;;;6.65;100.00
72570;BME280;60594;50.204;8.844;2024-03-23T14:40:04;99412.81;;;6.87;100.00
72570;BME280;60594;50.204;8.844;2024-03-23T14:42:50;99404.38;;;7.04;100.00
72570;BME280;60594;50.204;8.844;2024-03-23T14:45:35;99399.56;;;7.20;100.00
72570;BME280;60594;50.204;8.844;2024-03-23T14:48:20;99403.13;;;7.41;100.00
72570;BME280;60594;50.204;8.844;2024-03-23T14:51:05;99408.31;;;7.54;98.90
72570;BME280;60594;50.204;8.844;2024-03-23T14:53:50;99402.03;;;7.66;98.56
72570;BME280;60594;50.204;8.844;2024-03-23T14:56:34;99403.69;;;7.78;96.21
72570;BME280;60594;50.204;8.844;2024-03-23T14:59:19;99411.84;;;7.86;92.95
72570;BME280;60594;50.204;8.844;2024-03-23T15:02:06;99403.03;;;7.85;89.69
72570;BME280;60594;50.204;8.844;2024-03-23T15:04:51;99394.28;;;7.74;89.97
72570;BME280;60594;50.204;8.844;2024-03-23T15:07:36;99396.81;;;7.75;91.36
72570;BME280;60594;50.204;8.844;2024-03-23T15:10:23;99396.56;;;7.78;91.13
72570;BME280;60594;50.204;8.844;2024-03-23T15:13:07;99389.31;;;7.80;91.37
72570;BME280;60594;50.204;8.844;2024-03-23T15:15:53;99382.50;;;7.67;89.96
72570;BME280;60594;50.204;8.844;2024-03-23T15:18:38;99388.59;;;7.78;90.10
72570;BME280;60594;50.204;8.844;2024-03-23T15:21:24;99382.22;;;7.81;89.54
72570;BME280;60594;50.204;8.844;2024-03-23T15:24:09;99377.03;;;7.79;89.00
72570;BME280;60594;50.204;8.844;2024-03-23T15:26:55;99377.03;;;7.79;91.13
72570;BME280;60594;50.204;8.844;2024-03-23T15:29:40;99375.56;;;7.86;87.93
72570;BME280;60594;50.204;8.844;2024-03-23T15:32:30;99359.19;;;7.81;88.42
72570;BME280;60594;50.204;8.844;2024-03-23T15:35:15;99369.13;;;7.68;85.61
72570;BME280;60594;50.204;8.844;2024-03-23T15:38:00;99361.13;;;7.79;87.76
72570;BME280;60594;50.204;8.844;2024-03-23T15:40:51;99348.56;;;7.81;88.25
72570;BME280;60594;50.204;8.844;2024-03-23T15:43:37;99340.28;;;7.75;87.06
72570;BME280;60594;50.204;8.844;2024-03-23T15:46:22;99332.00;;;7.68;84.93
72570;BME280;60594;50.204;8.844;2024-03-23T15:49:08;99334.28;;;7.62;88.26
72570;BME280;60594;50.204;8.844;2024-03-23T15:51:52;99314.25;;;7.69;82.17
72570;BME280;60594;50.204;8.844;2024-03-23T15:54:38;99318.81;;;7.78;83.36
72570;BME280;60594;50.204;8.844;2024-03-23T15:57:24;99324.06;;;7.89;87.47
72570;BME280;60594;50.204;8.844;2024-03-23T16:00:09;99348.69;;;7.80;85.83
72570;BME280;60594;50.204;8.844;2024-03-23T16:02:57;99365.00;;;7.22;87.07
72570;BME280;60594;50.204;8.844;2024-03-23T16:05:50;99361.25;;;6.58;94.33
72570;BME280;60594;50.204;8.844;2024-03-23T16:08:35;99360.91;;;6.06;95.68
72570;BME280;60594;50.204;8.844;2024-03-23T16:11:20;99345.78;;;5.84;96.36
72570;BME280;60594;50.204;8.844;2024-03-23T16:14:05;99324.94;;;5.69;100.00
72570;BME280;60594;50.204;8.844;2024-03-23T16:16:51;99326.28;;;5.74;97.24
72570;BME280;60594;50.204;8.844;2024-03-23T16:19:36;99323.06;;;5.82;100.00
72570;BME280;60594;50.204;8.844;2024-03-23T16:22:21;99322.31;;;5.80;100.00
72570;BME280;60594;50.204;8.844;2024-03-23T16:25:06;99316.16;;;5.92;100.00